Bunker Hill, Kansas
Current Conditions -  °F | °C
As of 5:53 PM on Wednesday 26 Nov 2014 (Local Time) from KRSL Reporting Station
Overcast Overcast  
Wind Chill: 28°   Ceiling: 9500
Heat Index: 36°   Visibility: 10mi
Dew Point: 20°   Wind: 13mph
Humidity: 52%   Direction: 360°N
Pressure: 30.33"   Gusts: NA
Location:  38.88°N, 98.7°W
Report Text: KRSL 262353Z AUTO 36011KT 10SM OVC095 02/M07 A3033 RMK AO2 SLP287 T00221067 10050 20022 51023
Loading
Personal Weather Stations






























Interactive Weather Map New forecast layout! Learn more

10-Day Weather Forecast

Advertisements
Track Severe Weather on mobile